Time;durP1;ratioP1;P1;durP2;ratioP2;P2;SDS_P1;SDS_P2;PMS_P1;PMS_P2;Temp;Humidity;BMP_temperature;BMP_pressure;BME280_temperature;BME280_humidity;BME280_pressure;Samples;Min_cycle;Max_cycle;Signal;HPM_P1;HPM_P2
2023/07/10 16:43:21;;;;;;;;;0.00;0.00;;;;;;;;2008802;28;2726292;-88
2023/07/10 16:45:03;;;;;;;;;2.00;1.00;;;;;;;;1999009;28;2731576;-90
2023/07/10 16:46:16;;;;;;;;;3.33;1.00;;;;;;;;2001715;28;2720451;-88
2023/07/10 16:47:29;;;;;;;;;1.83;1.83;;;;;;;;1996709;28;2726300;-87
2023/07/10 16:48:40;;;;;;;;;3.00;2.33;;;;;;;;1964287;28;2744038;-87
2023/07/10 16:49:51;;;;;;;;;4.00;2.67;;;;;;;;1996060;28;2745085;-87
2023/07/10 16:51:02;;;;;;;;;4.67;1.33;;;;;;;;2010346;28;2742677;-89
2023/07/10 16:52:15;;;;;;;;;1.00;1.00;;;;;;;;2000995;28;2727406;-90
2023/07/10 16:53:35;;;;;;;;;1.67;1.33;;;;;;;;1993891;28;2733639;-92
2023/07/10 16:54:48;;;;;;;;;3.67;2.50;;;;;;;;1995134;28;2737869;-88
2023/07/10 16:56:13;;;;;;;;;1.50;1.50;;;;;;;;2003640;28;2719063;-90
2023/07/10 16:57:38;;;;;;;;;2.67;2.00;;;;;;;;1969127;28;2743996;-89
2023/07/10 16:58:51;;;;;;;;;1.00;1.00;;;;;;;;1993205;28;2733725;-89
2023/07/10 17:00:10;;;;;;;;;2.83;1.33;;;;;;;;2018436;28;2730486;-88
2023/07/10 17:01:28;;;;;;;;;3.50;2.00;;;;;;;;1997147;28;2737838;-88
2023/07/10 17:02:38;;;;;;;;;4.00;2.00;;;;;;;;1979621;28;2753474;-88
2023/07/10 17:03:52;;;;;;;;;2.33;2.00;;;;;;;;2014354;28;2739887;-88
2023/07/10 17:05:03;;;;;;;;;1.67;1.67;;;;;;;;1986412;28;3452373;-88
2023/07/10 17:06:15;;;;;;;;;3.00;1.00;;;;;;;;2011319;28;2723178;-88
2023/07/10 17:07:31;;;;;;;;;2.00;1.00;;;;;;;;1997148;28;2722252;-88
2023/07/10 17:08:45;;;;;;;;;1.00;1.00;;;;;;;;1994018;28;2725330;-88
2023/07/10 17:09:58;;;;;;;;;1.00;1.00;;;;;;;;1991120;28;2729437;-87
2023/07/10 17:11:10;;;;;;;;;2.00;2.00;;;;;;;;1971343;28;2744024;-88
2023/07/10 17:12:20;;;;;;;;;2.00;1.67;;;;;;;;1993317;28;2737816;-88
2023/07/10 17:13:33;;;;;;;;;3.00;2.00;;;;;;;;2012661;28;2750382;-88
2023/07/10 17:14:46;;;;;;;;;1.00;1.00;;;;;;;;2020554;28;2728434;-88
2023/07/10 17:16:00;;;;;;;;;1.00;1.00;;;;;;;;2005664;28;2724214;-89
2023/07/10 17:17:21;;;;;;;;;1.17;1.00;;;;;;;;2005063;28;2726419;-88
2023/07/10 17:18:34;;;;;;;;;1.17;1.17;;;;;;;;2003441;28;2728391;-88
2023/07/10 17:19:47;;;;;;;;;1.17;1.17;;;;;;;;1997948;28;2721100;-88
2023/07/10 17:21:01;;;;;;;;;1.50;1.00;;;;;;;;1989823;28;2731496;-87
2023/07/10 17:22:15;;;;;;;;;1.00;1.00;;;;;;;;1970298;28;2733642;-87
2023/07/10 17:23:33;;;;;;;;;1.67;1.00;;;;;;;;2010929;28;2725250;-87
2023/07/10 17:24:46;;;;;;;;;1.17;1.17;;;;;;;;1993495;28;2733593;-88
2023/07/10 17:26:00;;;;;;;;;2.17;2.17;;;;;;;;1995874;28;2730514;-86
2023/07/10 17:27:10;;;;;;;;;3.33;2.00;;;;;;;;1973561;28;2740964;-87
2023/07/10 17:28:22;;;;;;;;;2.33;1.00;;;;;;;;2027763;28;2732573;-87
2023/07/10 17:29:32;;;;;;;;;2.00;2.00;;;;;;;;2003972;28;2750324;-87
2023/07/10 17:30:44;;;;;;;;;1.67;1.67;;;;;;;;2018950;28;2731505;-87
2023/07/10 17:31:57;;;;;;;;;0.00;0.00;;;;;;;;2021349;28;2725743;-86
2023/07/10 17:33:28;;;;;;;;;1.83;1.83;;;;;;;;1996083;28;2734737;-87
2023/07/10 17:34:42;;;;;;;;;1.00;1.00;;;;;;;;1994116;28;2726316;-86
2023/07/10 17:35:55;;;;;;;;;1.17;1.17;;;;;;;;1996400;28;2733695;-86
2023/07/10 17:37:12;;;;;;;;;3.00;2.00;;;;;;;;2001684;28;2748166;-87
2023/07/10 17:38:22;;;;;;;;;3.33;2.00;;;;;;;;1972435;28;2754452;-86
2023/07/10 17:39:33;;;;;;;;;2.67;2.67;;;;;;;;2017345;28;2731507;-86
2023/07/10 17:40:46;;;;;;;;;1.33;1.33;;;;;;;;1995668;28;2732021;-87
2023/07/10 17:41:56;;;;;;;;;3.33;2.00;;;;;;;;1988519;28;2753550;-86
2023/07/10 17:43:10;;;;;;;;;1.00;1.00;;;;;;;;2035146;28;2727326;-86
2023/07/10 17:44:23;;;;;;;;;2.00;2.00;;;;;;;;2006117;28;2751331;-86
2023/07/10 17:45:33;;;;;;;;;2.33;2.33;;;;;;;;1995525;28;2748175;-86
2023/07/10 17:46:44;;;;;;;;;1.00;1.00;;;;;;;;2021328;28;2724268;-87
2023/07/10 17:47:55;;;;;;;;;2.67;2.67;;;;;;;;2002983;28;2754476;-86
2023/07/10 17:49:09;;;;;;;;;2.33;2.00;;;;;;;;2024433;28;2739864;-77
2023/07/10 17:50:22;;;;;;;;;1.00;1.00;;;;;;;;2030119;28;2732540;-77
2023/07/10 17:51:33;;;;;;;;;2.33;1.33;;;;;;;;1982245;28;2744032;-77
2023/07/10 17:52:44;;;;;;;;;3.00;3.00;;;;;;;;1998662;28;2754462;-77
2023/07/10 17:53:58;;;;;;;;;1.50;1.50;;;;;;;;2017522;28;2722725;-77
2023/07/10 17:55:15;;;;;;;;;2.00;1.33;;;;;;;;1999279;28;2739854;-77
2023/07/10 17:56:28;;;;;;;;;2.17;1.50;;;;;;;;2001039;28;2731573;-77
2023/07/10 17:57:41;;;;;;;;;2.00;2.00;;;;;;;;2000427;28;2739841;-78
2023/07/10 17:58:54;;;;;;;;;3.33;3.33;;;;;;;;1982210;28;2736784;-78
2023/07/10 18:00:08;;;;;;;;;4.00;2.67;;;;;;;;2020694;28;2748170;-78
2023/07/10 18:01:23;;;;;;;;;1.67;0.00;;;;;;;;1999209;28;2724248;-78
2023/07/10 18:02:34;;;;;;;;;2.00;2.00;;;;;;;;1972615;28;2749313;-78
2023/07/10 18:03:48;;;;;;;;;1.67;1.67;;;;;;;;2025527;28;2747137;-78
2023/07/10 18:04:59;;;;;;;;;4.00;2.00;;;;;;;;1980615;28;2746083;-77
2023/07/10 18:06:10;;;;;;;;;4.00;2.00;;;;;;;;2015142;28;2741947;-77
2023/07/10 18:07:20;;;;;;;;;2.33;1.00;;;;;;;;2027222;28;2727342;-77
2023/07/10 18:08:31;;;;;;;;;2.00;2.00;;;;;;;;1980468;28;2748268;-77
2023/07/10 18:09:45;;;;;;;;;4.00;3.00;;;;;;;;2021474;28;2743042;-77
2023/07/10 18:11:00;;;;;;;;;3.00;3.00;;;;;;;;2002950;28;2754531;-78
2023/07/10 18:12:12;;;;;;;;;2.00;2.00;;;;;;;;2004049;28;2750271;-78
2023/07/10 18:13:27;;;;;;;;;2.00;2.00;;;;;;;;1995312;28;2738863;-78
2023/07/10 18:14:45;;;;;;;;;2.50;1.67;;;;;;;;2014308;28;2733596;-77
2023/07/10 18:15:55;;;;;;;;;2.00;2.00;;;;;;;;1961818;28;2750349;-78
2023/07/10 18:17:14;;;;;;;;;2.33;2.33;;;;;;;;2011254;28;2748159;-78
2023/07/10 18:18:24;;;;;;;;;5.00;3.00;;;;;;;;1992423;28;2736031;-78
2023/07/10 18:19:35;;;;;;;;;2.00;2.00;;;;;;;;2020614;28;2748244;-78
2023/07/10 18:20:46;;;;;;;;;2.67;2.00;;;;;;;;2017716;28;2740932;-78
2023/07/10 18:21:57;;;;;;;;;4.33;3.00;;;;;;;;2020076;28;2742978;-78
2023/07/10 18:23:27;;;;;;;;;2.00;2.00;;;;;;;;2026639;28;2730504;-78
2023/07/10 18:24:37;;;;;;;;;3.00;2.33;;;;;;;;1968262;28;2741925;-78
2023/07/10 18:25:51;;;;;;;;;3.00;2.00;;;;;;;;2015317;28;2740380;-78
2023/07/10 18:27:02;;;;;;;;;2.00;2.00;;;;;;;;1994278;28;2747762;-77
2023/07/10 18:28:16;;;;;;;;;2.00;2.00;;;;;;;;2017955;28;2744059;-78
2023/07/10 18:29:26;;;;;;;;;3.33;2.00;;;;;;;;2003303;28;2736714;-78
2023/07/10 18:30:37;;;;;;;;;2.00;2.00;;;;;;;;2026495;28;2741975;-78
2023/07/10 18:31:48;;;;;;;;;4.00;3.00;;;;;;;;2020074;28;2740935;-78
2023/07/10 18:32:59;;;;;;;;;3.67;2.33;;;;;;;;2021104;28;2742050;-78
2023/07/10 18:34:16;;;;;;;;;2.00;2.00;;;;;;;;2019289;28;2737762;-77
2023/07/10 18:35:27;;;;;;;;;2.33;2.00;;;;;;;;1994798;28;2751310;-77
2023/07/10 18:36:38;;;;;;;;;3.67;2.00;;;;;;;;2020551;28;2739848;-78
2023/07/10 18:37:49;;;;;;;;;2.00;2.00;;;;;;;;2018703;28;2748658;-77
2023/07/10 18:38:59;;;;;;;;;3.67;2.00;;;;;;;;2015906;28;2749247;-78
2023/07/10 18:40:11;;;;;;;;;2.00;2.00;;;;;;;;2011687;28;2748264;-78
2023/07/10 18:41:30;;;;;;;;;2.40;2.40;;;;;;;;2018350;28;2732022;-78
2023/07/10 18:42:40;;;;;;;;;3.00;3.00;;;;;;;;2002608;28;2753718;-78
2023/07/10 18:43:52;;;;;;;;;5.00;2.33;;;;;;;;2027526;28;2737766;-77
2023/07/10 18:45:05;;;;;;;;;2.00;2.00;;;;;;;;1993025;28;2753944;-77
2023/07/10 18:46:16;;;;;;;;;2.33;2.33;;;;;;;;1994797;28;2744031;-77
2023/07/10 18:47:29;;;;;;;;;2.33;2.33;;;;;;;;2021751;28;2734729;-78
2023/07/10 18:48:39;;;;;;;;;3.33;2.33;;;;;;;;1986439;28;2743053;-77
2023/07/10 18:49:50;;;;;;;;;3.00;2.67;;;;;;;;2019704;28;2735713;-77
2023/07/10 18:51:03;;;;;;;;;2.67;2.67;;;;;;;;1995695;28;2748202;-77
2023/07/10 18:52:22;;;;;;;;;4.67;2.17;;;;;;;;2019052;28;2741965;-78
2023/07/10 18:53:32;;;;;;;;;4.00;3.00;;;;;;;;1981527;28;2754454;-78
2023/07/10 18:54:43;;;;;;;;;5.33;2.33;;;;;;;;2026990;28;2737253;-78
2023/07/10 18:55:57;;;;;;;;;2.17;2.00;;;;;;;;2026831;28;2737786;-78
2023/07/10 18:57:10;;;;;;;;;2.17;2.17;;;;;;;;2027179;28;2740897;-77
2023/07/10 18:58:26;;;;;;;;;2.17;2.17;;;;;;;;1995655;28;2740880;-78
2023/07/10 18:59:37;;;;;;;;;6.33;3.67;;;;;;;;1973639;28;2750338;-78
2023/07/10 19:00:48;;;;;;;;;3.00;2.00;;;;;;;;2027987;28;2733607;-77
2023/07/10 19:01:58;;;;;;;;;2.33;2.00;;;;;;;;2001069;28;2751324;-77
2023/07/10 19:03:09;;;;;;;;;3.00;3.00;;;;;;;;2024396;28;2739889;-77
2023/07/10 19:04:21;;;;;;;;;2.00;2.00;;;;;;;;2021863;28;2746168;-78
2023/07/10 19:05:33;;;;;;;;;3.00;2.00;;;;;;;;2027746;28;2744110;-78
2023/07/10 19:06:46;;;;;;;;;2.00;2.00;;;;;;;;2004571;28;2752464;-77
2023/07/10 19:07:57;;;;;;;;;5.33;2.00;;;;;;;;1979522;28;2750354;-77
2023/07/10 19:09:27;;;;;;;;;3.00;3.00;;;;;;;;2026381;28;2722212;-78
2023/07/10 19:10:40;;;;;;;;;1.00;1.00;;;;;;;;2017907;28;2735774;-78
2023/07/10 19:11:54;;;;;;;;;3.00;2.00;;;;;;;;1997827;28;2738890;-77
2023/07/10 19:13:27;;;;;;;;;0.17;0.17;;;;;;;;2005357;28;2744000;-78
2023/07/10 19:14:37;;;;;;;;;4.00;3.00;;;;;;;;1977126;28;2748175;-77
2023/07/10 19:15:50;;;;;;;;;3.00;3.00;;;;;;;;2017050;28;2737818;-77
2023/07/10 19:17:04;;;;;;;;;2.50;2.50;;;;;;;;2018531;28;2740958;-78
2023/07/10 19:18:21;;;;;;;;;4.50;1.83;;;;;;;;1995224;28;2737801;-77
2023/07/10 19:19:33;;;;;;;;;3.00;3.00;;;;;;;;1971307;28;2740915;-77
2023/07/10 19:20:47;;;;;;;;;3.33;2.00;;;;;;;;2028407;28;2735718;-77
2023/07/10 19:21:57;;;;;;;;;2.00;2.00;;;;;;;;1979927;28;2752342;-77
2023/07/10 19:23:34;;;;;;;;;2.67;2.67;;;;;;;;2007502;28;2736748;-77
2023/07/10 19:24:47;;;;;;;;;3.00;2.67;;;;;;;;2012792;28;2739943;-78
2023/07/10 19:25:57;;;;;;;;;3.33;2.00;;;;;;;;1970865;28;2748181;-78
2023/07/10 19:27:08;;;;;;;;;3.00;2.00;;;;;;;;2004233;28;2754560;-77
2023/07/10 19:28:20;;;;;;;;;3.00;2.00;;;;;;;;2003644;28;2747133;-77
2023/07/10 19:29:33;;;;;;;;;1.17;0.00;;;;;;;;2022417;28;2712799;-77
2023/07/10 19:30:51;;;;;;;;;2.33;2.33;;;;;;;;1978438;28;2749227;-78
2023/07/10 19:32:03;;;;;;;;;3.67;2.00;;;;;;;;1992026;28;2753500;-77
2023/07/10 19:33:21;;;;;;;;;3.00;3.00;;;;;;;;1993553;28;2733989;-77
2023/07/10 19:34:31;;;;;;;;;2.00;2.00;;;;;;;;2000905;28;2738843;-77
2023/07/10 19:35:42;;;;;;;;;3.33;2.33;;;;;;;;2018086;28;2750284;-77
2023/07/10 19:36:54;;;;;;;;;2.60;1.40;;;;;;;;2020019;28;2735735;-77
2023/07/10 19:38:15;;;;;;;;;2.83;2.83;;;;;;;;2005399;28;2734661;-77
2023/07/10 19:39:30;;;;;;;;;3.00;2.50;;;;;;;;1997173;28;2740916;-78
2023/07/10 19:40:43;;;;;;;;;2.83;2.83;;;;;;;;1997090;28;2737784;-77
2023/07/10 19:41:56;;;;;;;;;2.83;2.83;;;;;;;;1996041;28;2733620;-78
2023/07/10 19:43:06;;;;;;;;;3.33;3.00;;;;;;;;1970864;28;2741945;-77
2023/07/10 19:44:19;;;;;;;;;4.00;4.00;;;;;;;;2016845;28;2754584;-78
2023/07/10 19:45:29;;;;;;;;;2.00;2.00;;;;;;;;1993268;28;2738800;-77
2023/07/10 19:46:40;;;;;;;;;3.00;3.00;;;;;;;;2015759;28;2749289;-77
2023/07/10 19:47:51;;;;;;;;;2.00;2.00;;;;;;;;2018999;28;2729456;-76
2023/07/10 19:49:04;;;;;;;;;3.00;3.00;;;;;;;;2016915;28;2737794;-76
2023/07/10 19:50:18;;;;;;;;;2.33;2.33;;;;;;;;1972540;28;2734632;-78
2023/07/10 19:51:29;;;;;;;;;4.67;4.67;;;;;;;;2001829;28;2742970;-77
2023/07/10 19:52:40;;;;;;;;;2.00;2.00;;;;;;;;2024023;28;2746089;-77
2023/07/10 19:53:51;;;;;;;;;6.33;4.67;;;;;;;;2012531;28;2745089;-77
2023/07/10 19:55:03;;;;;;;;;2.67;2.67;;;;;;;;2019333;28;2738827;-78
2023/07/10 19:56:15;;;;;;;;;3.33;3.00;;;;;;;;1999773;28;2744042;-77
2023/07/10 19:57:29;;;;;;;;;6.00;3.00;;;;;;;;2000847;28;2754448;-77
2023/07/10 19:58:42;;;;;;;;;3.67;3.67;;;;;;;;2004288;28;2748193;-77
2023/07/10 19:59:55;;;;;;;;;2.67;2.67;;;;;;;;2027075;28;2744054;-77
2023/07/10 20:01:10;;;;;;;;;3.00;3.00;;;;;;;;1976516;28;2746093;-77
2023/07/10 20:02:23;;;;;;;;;1.17;1.17;;;;;;;;2007757;28;2737790;-77
2023/07/10 20:03:36;;;;;;;;;4.50;3.00;;;;;;;;1986327;28;2727405;-77
2023/07/10 20:04:46;;;;;;;;;3.00;3.00;;;;;;;;1972045;28;2742309;-77
2023/07/10 20:05:58;;;;;;;;;5.00;4.00;;;;;;;;2017476;28;2752455;-77
2023/07/10 20:07:17;;;;;;;;;3.33;3.33;;;;;;;;2002019;28;2740898;-77
2023/07/10 20:08:28;;;;;;;;;4.00;2.00;;;;;;;;2001327;28;2742291;-77
2023/07/10 20:09:38;;;;;;;;;5.33;3.33;;;;;;;;2001507;28;3467941;-77
2023/07/10 20:10:51;;;;;;;;;4.00;3.00;;;;;;;;2014350;28;2748264;-77
2023/07/10 20:12:02;;;;;;;;;6.33;5.00;;;;;;;;1989608;28;2746255;-78
2023/07/10 20:13:17;;;;;;;;;7.33;5.00;;;;;;;;1993907;28;3454431;-77
2023/07/10 20:14:27;;;;;;;;;5.00;4.00;;;;;;;;2002204;28;2743523;-77
2023/07/10 20:15:39;;;;;;;;;3.00;3.00;;;;;;;;2024288;28;2742017;-77
2023/07/10 20:16:52;;;;;;;;;3.33;3.33;;;;;;;;2028135;28;2737809;-77
2023/07/10 20:18:13;;;;;;;;;4.00;4.00;;;;;;;;2006025;28;2738819;-77
2023/07/10 20:19:24;;;;;;;;;4.00;4.00;;;;;;;;1979221;28;2750416;-77
2023/07/10 20:20:39;;;;;;;;;5.00;4.00;;;;;;;;1998166;28;3465956;-77
2023/07/10 20:21:51;;;;;;;;;4.00;4.00;;;;;;;;1987976;28;2748181;-77
2023/07/10 20:23:01;;;;;;;;;3.67;3.67;;;;;;;;1993564;28;3470136;-77
2023/07/10 20:24:13;;;;;;;;;5.33;4.00;;;;;;;;2018095;28;2752453;-77
2023/07/10 20:25:23;;;;;;;;;5.00;5.00;;;;;;;;2003337;28;2746131;-77
2023/07/10 20:26:34;;;;;;;;;4.67;4.00;;;;;;;;2025083;28;2752477;-77
2023/07/10 20:27:47;;;;;;;;;5.00;4.33;;;;;;;;2022808;28;2750399;-78
2023/07/10 20:29:00;;;;;;;;;7.67;5.50;;;;;;;;2027483;28;2727389;-79
2023/07/10 20:30:15;;;;;;;;;3.67;3.00;;;;;;;;1978141;28;2741938;-81
2023/07/10 20:31:25;;;;;;;;;6.00;4.33;;;;;;;;2002367;28;2743490;-74
2023/07/10 20:32:36;;;;;;;;;5.00;4.00;;;;;;;;2025891;28;2752456;-76
2023/07/10 20:33:49;;;;;;;;;4.00;3.00;;;;;;;;2028623;28;2741953;-76
2023/07/10 20:35:02;;;;;;;;;5.00;4.67;;;;;;;;2020375;28;2742954;-73
2023/07/10 20:36:17;;;;;;;;;4.00;4.00;;;;;;;;1971887;28;2749869;-73
2023/07/10 20:37:27;;;;;;;;;5.67;4.67;;;;;;;;1990091;28;3462773;-78
2023/07/10 20:38:40;;;;;;;;;4.33;4.00;;;;;;;;2016410;28;2752420;-76
2023/07/10 20:39:50;;;;;;;;;4.00;4.00;;;;;;;;1986530;28;2750318;-77
2023/07/10 20:41:01;;;;;;;;;8.33;5.00;;;;;;;;2018817;28;2748885;-77
2023/07/10 20:42:13;;;;;;;;;4.00;4.00;;;;;;;;2000480;28;2754670;-78
2023/07/10 20:43:27;;;;;;;;;3.50;3.00;;;;;;;;2012001;28;2742013;-77
2023/07/10 20:44:37;;;;;;;;;3.67;3.00;;;;;;;;1963720;28;2752501;-77
2023/07/10 20:45:49;;;;;;;;;4.67;4.00;;;;;;;;1998403;28;2746126;-77
2023/07/10 20:47:00;;;;;;;;;5.00;5.00;;;;;;;;1980549;28;2746189;-77
2023/07/10 20:48:14;;;;;;;;;4.00;3.00;;;;;;;;1985145;28;2734709;-78
2023/07/10 20:49:26;;;;;;;;;4.33;4.00;;;;;;;;1988298;28;2752356;-77
2023/07/10 20:50:41;;;;;;;;;6.00;3.67;;;;;;;;1986603;28;2750342;-77
2023/07/10 20:51:52;;;;;;;;;3.00;3.00;;;;;;;;1988934;28;2739849;-78
2023/07/10 20:53:09;;;;;;;;;4.00;4.00;;;;;;;;1994524;28;2754455;-77
2023/07/10 20:54:21;;;;;;;;;3.33;3.33;;;;;;;;1989641;28;2746091;-78
2023/07/10 20:55:31;;;;;;;;;3.00;3.00;;;;;;;;1986660;28;2736803;-80
2023/07/10 20:56:43;;;;;;;;;3.67;3.67;;;;;;;;2010840;28;3458119;-80
2023/07/10 20:57:53;;;;;;;;;3.33;2.00;;;;;;;;1996535;28;2737783;-79
2023/07/10 20:59:19;;;;;;;;;3.00;3.00;;;;;;;;2015593;28;2746642;-79
2023/07/10 21:00:32;;;;;;;;;3.17;2.67;;;;;;;;2022023;28;2738820;-79
2023/07/10 21:01:42;;;;;;;;;3.00;3.00;;;;;;;;1963847;28;2742021;-79
2023/07/10 21:02:53;;;;;;;;;3.00;3.00;;;;;;;;2019466;28;1819053;-79
2023/07/10 21:04:03;;;;;;;;;6.33;3.67;;;;;;;;1987256;28;2746074;-78
2023/07/10 21:05:14;;;;;;;;;4.00;3.67;;;;;;;;2005204;28;2736747;-79
2023/07/10 21:06:27;;;;;;;;;3.33;3.33;;;;;;;;1978420;28;3455477;-78
2023/07/10 21:07:37;;;;;;;;;4.67;4.00;;;;;;;;1988701;28;2752468;-78
2023/07/10 21:08:58;;;;;;;;;5.00;3.00;;;;;;;;2006588;28;2746159;-78
2023/07/10 21:10:11;;;;;;;;;1.33;1.33;;;;;;;;2015130;28;2744009;-78
2023/07/10 21:11:23;;;;;;;;;4.33;3.33;;;;;;;;1964000;28;2733187;-80
2023/07/10 21:12:36;;;;;;;;;5.33;4.17;;;;;;;;2003735;28;2746119;-80
2023/07/10 21:13:47;;;;;;;;;6.33;5.00;;;;;;;;1960842;28;2745159;-79
2023/07/10 21:14:58;;;;;;;;;6.67;3.33;;;;;;;;1986490;28;2748276;-77
2023/07/10 21:16:14;;;;;;;;;3.33;3.33;;;;;;;;1999625;28;2754513;-77
2023/07/10 21:17:27;;;;;;;;;4.33;3.67;;;;;;;;1981433;28;2740971;-77
2023/07/10 21:18:40;;;;;;;;;3.00;2.67;;;;;;;;2018795;28;2729456;-79
2023/07/10 21:19:50;;;;;;;;;4.67;3.33;;;;;;;;1968784;28;2746142;-77
2023/07/10 21:21:01;;;;;;;;;4.00;4.00;;;;;;;;2016406;28;2752427;-78
2023/07/10 21:22:13;;;;;;;;;3.00;3.00;;;;;;;;2005218;28;2746122;-77
2023/07/10 21:23:25;;;;;;;;;3.00;3.00;;;;;;;;1996675;28;2741432;-77
2023/07/10 21:24:35;;;;;;;;;3.67;3.67;;;;;;;;1984566;28;2746148;-76
2023/07/10 21:25:46;;;;;;;;;6.00;4.00;;;;;;;;2009113;28;2754578;-76
2023/07/10 21:26:58;;;;;;;;;4.67;4.00;;;;;;;;2013744;28;2745085;-76
2023/07/10 21:28:15;;;;;;;;;3.33;3.33;;;;;;;;1993962;28;2749297;-76
2023/07/10 21:29:25;;;;;;;;;4.00;4.00;;;;;;;;1989893;28;2754546;-76
2023/07/10 21:30:36;;;;;;;;;3.00;2.33;;;;;;;;2017827;28;2738808;-76
2023/07/10 21:31:48;;;;;;;;;4.33;4.33;;;;;;;;2013955;28;2745065;-76
2023/07/10 21:32:58;;;;;;;;;4.33;3.00;;;;;;;;1999557;28;2746169;-76
2023/07/10 21:34:11;;;;;;;;;5.00;4.00;;;;;;;;2001314;28;3466892;-78
2023/07/10 21:35:26;;;;;;;;;3.00;3.00;;;;;;;;1995852;28;2737775;-76
2023/07/10 21:36:36;;;;;;;;;4.33;3.00;;;;;;;;1994991;28;2739873;-78
2023/07/10 21:37:47;;;;;;;;;3.00;3.00;;;;;;;;2015927;28;2752423;-78
2023/07/10 21:38:58;;;;;;;;;4.00;4.00;;;;;;;;2005238;28;2752439;-79
2023/07/10 21:40:09;;;;;;;;;2.00;1.00;;;;;;;;2013195;28;2727354;-77
2023/07/10 21:41:20;;;;;;;;;4.00;4.00;;;;;;;;1996981;28;2754507;-77
2023/07/10 21:42:33;;;;;;;;;4.67;3.00;;;;;;;;2003859;28;2743031;-76
2023/07/10 21:43:44;;;;;;;;;4.00;4.00;;;;;;;;2000595;28;2752466;-77
2023/07/10 21:44:56;;;;;;;;;7.00;4.00;;;;;;;;1999164;28;2752450;-77
2023/07/10 21:46:09;;;;;;;;;6.33;4.00;;;;;;;;1996013;28;2749324;-86
2023/07/10 21:47:20;;;;;;;;;4.33;4.00;;;;;;;;1987165;28;2742373;-80
2023/07/10 21:48:32;;;;;;;;;6.00;3.33;;;;;;;;1996520;28;3470043;-85
2023/07/10 21:49:42;;;;;;;;;4.67;4.67;;;;;;;;1995331;28;2750273;-85
2023/07/10 21:50:54;;;;;;;;;5.33;4.67;;;;;;;;2016279;28;2739915;-87
2023/07/10 21:52:05;;;;;;;;;5.67;4.00;;;;;;;;1995230;28;2745479;-79
2023/07/10 21:53:17;;;;;;;;;5.00;5.00;;;;;;;;2008935;28;2735764;-78
2023/07/10 21:54:27;;;;;;;;;4.00;2.00;;;;;;;;2002488;28;2753394;-79
2023/07/10 21:55:38;;;;;;;;;3.33;3.33;;;;;;;;2027479;28;2739157;-79
2023/07/10 21:56:48;;;;;;;;;4.33;4.00;;;;;;;;1997531;28;2747274;-79
2023/07/10 21:57:59;;;;;;;;;4.33;4.33;;;;;;;;2024931;28;3454486;-79
2023/07/10 21:59:16;;;;;;;;;5.00;5.00;;;;;;;;2014221;28;2736732;-79
2023/07/10 22:00:29;;;;;;;;;4.67;4.67;;;;;;;;2021830;28;2744395;-79
2023/07/10 22:01:39;;;;;;;;;4.00;4.00;;;;;;;;1980287;28;2752405;-79
2023/07/10 22:02:50;;;;;;;;;5.67;5.00;;;;;;;;2026444;28;2745169;-79
2023/07/10 22:04:01;;;;;;;;;3.33;3.33;;;;;;;;2021035;28;2736810;-79
2023/07/10 22:05:13;;;;;;;;;5.33;5.00;;;;;;;;2027716;28;2737770;-79
2023/07/10 22:06:25;;;;;;;;;4.00;3.67;;;;;;;;1979423;28;3470052;-78
2023/07/10 22:07:35;;;;;;;;;5.00;3.33;;;;;;;;2003046;28;2746124;-78
2023/07/10 22:08:47;;;;;;;;;6.67;5.00;;;;;;;;2027094;28;2748213;-78
2023/07/10 22:09:57;;;;;;;;;4.67;3.00;;;;;;;;2008159;28;2750859;-78
2023/07/10 22:11:16;;;;;;;;;2.33;1.00;;;;;;;;2028179;28;2739869;-79
2023/07/10 22:12:26;;;;;;;;;5.33;4.00;;;;;;;;2002950;28;2754556;-79
2023/07/10 22:13:38;;;;;;;;;4.33;3.00;;;;;;;;2022338;28;3470048;-79
2023/07/10 22:14:48;;;;;;;;;2.33;2.00;;;;;;;;2004642;28;2744007;-79
2023/07/10 22:16:00;;;;;;;;;5.00;3.00;;;;;;;;2022130;28;2745065;-80
2023/07/10 22:17:16;;;;;;;;;3.00;3.00;;;;;;;;2002391;28;2754498;-80
2023/07/10 22:18:34;;;;;;;;;3.83;2.33;;;;;;;;2029736;28;2731563;-80
2023/07/10 22:19:48;;;;;;;;;4.33;3.33;;;;;;;;1980007;28;2752756;-79
2023/07/10 22:20:59;;;;;;;;;5.00;4.00;;;;;;;;2002890;28;3467964;-79
2023/07/10 22:22:12;;;;;;;;;4.33;3.00;;;;;;;;2029141;28;2724220;-79
2023/07/10 22:23:27;;;;;;;;;4.00;4.00;;;;;;;;1980402;28;2741476;-79
2023/07/10 22:24:37;;;;;;;;;3.00;3.00;;;;;;;;2003214;28;2729991;-79
2023/07/10 22:25:49;;;;;;;;;1.00;1.00;;;;;;;;2028612;28;2727360;-78
2023/07/10 22:26:59;;;;;;;;;6.00;4.00;;;;;;;;2002422;28;3464823;-79
2023/07/10 22:28:17;;;;;;;;;3.67;3.00;;;;;;;;2017376;28;2737769;-79
2023/07/10 22:29:27;;;;;;;;;3.33;3.33;;;;;;;;1995117;28;3467949;-79
2023/07/10 22:30:38;;;;;;;;;3.00;3.00;;;;;;;;2024999;28;2735691;-79
2023/07/10 22:31:50;;;;;;;;;6.25;3.00;;;;;;;;2027430;28;2743466;-79
2023/07/10 22:33:01;;;;;;;;;4.00;4.00;;;;;;;;2002598;28;2747696;-79
2023/07/10 22:34:11;;;;;;;;;5.00;4.00;;;;;;;;2000800;28;3470019;-79
2023/07/10 22:35:22;;;;;;;;;5.33;4.67;;;;;;;;2018426;28;2752810;-77
2023/07/10 22:36:33;;;;;;;;;5.67;4.00;;;;;;;;2022171;28;2740897;-77
2023/07/10 22:37:44;;;;;;;;;4.00;3.00;;;;;;;;2020814;28;2742058;-77
2023/07/10 22:38:55;;;;;;;;;4.00;4.00;;;;;;;;2021323;28;2751429;-77
2023/07/10 22:40:08;;;;;;;;;5.33;5.33;;;;;;;;2021492;28;2742523;-77
2023/07/10 22:41:23;;;;;;;;;2.33;2.33;;;;;;;;2003295;28;2735685;-77
2023/07/10 22:42:33;;;;;;;;;4.67;4.00;;;;;;;;2003105;28;2742990;-77
2023/07/10 22:43:49;;;;;;;;;4.00;4.00;;;;;;;;2015996;28;2752456;-77
2023/07/10 22:44:59;;;;;;;;;5.00;4.00;;;;;;;;1985778;28;3466916;-77
2023/07/10 22:46:18;;;;;;;;;5.33;4.00;;;;;;;;2009502;28;2752456;-77
2023/07/10 22:47:28;;;;;;;;;4.00;4.00;;;;;;;;1995080;28;2750345;-77
2023/07/10 22:48:39;;;;;;;;;5.33;5.33;;;;;;;;2002102;28;2742972;-77
2023/07/10 22:49:54;;;;;;;;;4.00;3.33;;;;;;;;2010953;28;2748243;-78
2023/07/10 22:51:08;;;;;;;;;4.00;4.00;;;;;;;;1995311;28;2745171;-78
2023/07/10 22:52:18;;;;;;;;;5.67;4.00;;;;;;;;1996234;28;2749250;-78
2023/07/10 22:53:29;;;;;;;;;3.00;3.00;;;;;;;;2017587;28;2743082;-78
2023/07/10 22:54:40;;;;;;;;;5.00;4.00;;;;;;;;2013071;28;2750345;-78
2023/07/10 22:55:52;;;;;;;;;7.00;3.67;;;;;;;;2005230;28;2751311;-79
2023/07/10 22:57:03;;;;;;;;;7.00;4.00;;;;;;;;1988379;28;2738802;-78
2023/07/10 22:58:14;;;;;;;;;4.00;4.00;;;;;;;;2014856;28;2754567;-78
2023/07/10 22:59:25;;;;;;;;;5.00;5.00;;;;;;;;2014400;28;2740931;-78
2023/07/10 23:00:36;;;;;;;;;8.33;4.67;;;;;;;;2013670;28;2751313;-78
2023/07/10 23:01:48;;;;;;;;;8.33;4.67;;;;;;;;1994929;28;3464875;-78
2023/07/10 23:02:59;;;;;;;;;4.67;4.33;;;;;;;;1994921;28;2741980;-78
2023/07/10 23:04:12;;;;;;;;;3.50;3.50;;;;;;;;2016806;28;2741925;-78
2023/07/10 23:05:24;;;;;;;;;7.00;4.67;;;;;;;;1972011;28;2741993;-78
2023/07/10 23:06:35;;;;;;;;;4.67;4.00;;;;;;;;1997650;28;2752458;-78
2023/07/10 23:07:45;;;;;;;;;4.00;4.00;;;;;;;;2009271;28;2742017;-78
2023/07/10 23:08:56;;;;;;;;;6.00;5.00;;;;;;;;2013757;28;3461707;-78
2023/07/10 23:10:14;;;;;;;;;4.00;3.00;;;;;;;;2011919;28;2751823;-78
2023/07/10 23:11:24;;;;;;;;;6.00;4.00;;;;;;;;1995480;28;2746111;-78
2023/07/10 23:12:35;;;;;;;;;6.33;4.67;;;;;;;;2010748;28;2742996;-75
2023/07/10 23:13:48;;;;;;;;;4.00;4.00;;;;;;;;2013431;28;2735706;-76
2023/07/10 23:14:59;;;;;;;;;7.00;4.00;;;;;;;;1994323;28;2746114;-76
2023/07/10 23:16:11;;;;;;;;;3.67;3.67;;;;;;;;2008031;28;3465889;-75
2023/07/10 23:17:21;;;;;;;;;4.00;4.00;;;;;;;;1979652;28;2754577;-75
2023/07/10 23:18:36;;;;;;;;;4.67;4.67;;;;;;;;2017349;28;2746200;-77
2023/07/10 23:19:46;;;;;;;;;4.67;4.67;;;;;;;;1984729;28;3453772;-76
2023/07/10 23:20:57;;;;;;;;;6.00;1.67;;;;;;;;1998480;28;2750366;-76
2023/07/10 23:22:08;;;;;;;;;5.00;4.33;;;;;;;;2005017;28;2740925;-75
2023/07/10 23:23:19;;;;;;;;;7.00;4.00;;;;;;;;2003685;28;2749311;-75
2023/07/10 23:24:29;;;;;;;;;3.67;3.00;;;;;;;;2001394;28;2752422;-75
2023/07/10 23:25:40;;;;;;;;;6.00;4.33;;;;;;;;2007470;28;2745068;-76
2023/07/10 23:26:51;;;;;;;;;5.67;4.33;;;;;;;;1998865;28;2744514;-75
2023/07/10 23:28:02;;;;;;;;;6.33;5.00;;;;;;;;2009338;28;2746114;-75
2023/07/10 23:29:13;;;;;;;;;5.67;5.00;;;;;;;;2011697;28;2745060;-75
2023/07/10 23:30:24;;;;;;;;;6.33;6.33;;;;;;;;2014283;28;3452352;-75
2023/07/10 23:31:39;;;;;;;;;3.67;3.67;;;;;;;;2019054;28;2736763;-75
2023/07/10 23:32:50;;;;;;;;;4.67;3.67;;;;;;;;1987676;28;2754513;-76
2023/07/10 23:34:00;;;;;;;;;3.33;3.33;;;;;;;;1995358;28;2749280;-76
2023/07/10 23:35:11;;;;;;;;;3.33;3.33;;;;;;;;2016769;28;2752827;-75
2023/07/10 23:36:23;;;;;;;;;4.67;4.00;;;;;;;;2014064;28;2752372;-75
2023/07/10 23:37:33;;;;;;;;;4.00;4.00;;;;;;;;1999368;28;2754533;-75
2023/07/10 23:38:45;;;;;;;;;4.00;4.00;;;;;;;;2022281;28;2754528;-76
2023/07/10 23:40:00;;;;;;;;;7.17;7.17;;;;;;;;2020749;28;2746134;-76
2023/07/10 23:41:11;;;;;;;;;4.33;4.33;;;;;;;;1971625;28;3453374;-76
2023/07/10 23:42:21;;;;;;;;;7.67;4.00;;;;;;;;2002898;28;2746140;-76
2023/07/10 23:43:32;;;;;;;;;5.00;4.33;;;;;;;;2013600;28;3461007;-77
2023/07/10 23:44:43;;;;;;;;;3.00;3.00;;;;;;;;2014763;28;2742036;-77
2023/07/10 23:45:54;;;;;;;;;4.33;3.00;;;;;;;;2026070;28;3465973;-77